sensor_id;sensor_type;location;lat;lon;timestamp;temperature;humidity
80236;DHT22;69543;42.138;24.742;2023-04-24T00:01:04;22.60;33.00
80236;DHT22;69543;42.138;24.742;2023-04-24T00:03:32;22.60;32.90
80236;DHT22;69543;42.138;24.742;2023-04-24T00:05:58;22.70;33.00
80236;DHT22;69543;42.138;24.742;2023-04-24T00:08:24;22.60;32.90
80236;DHT22;69543;42.138;24.742;2023-04-24T00:10:50;22.70;33.00
80236;DHT22;69543;42.138;24.742;2023-04-24T00:13:18;22.60;34.00
80236;DHT22;69543;42.138;24.742;2023-04-24T00:15:43;22.70;33.00
80236;DHT22;69543;42.138;24.742;2023-04-24T00:18:09;22.60;33.00
80236;DHT22;69543;42.138;24.742;2023-04-24T00:20:34;22.60;32.90
80236;DHT22;69543;42.138;24.742;2023-04-24T00:23:03;22.60;32.90
80236;DHT22;69543;42.138;24.742;2023-04-24T00:25:29;22.60;32.90
80236;DHT22;69543;42.138;24.742;2023-04-24T00:27:54;22.60;33.00
80236;DHT22;69543;42.138;24.742;2023-04-24T00:30:20;22.60;33.00
80236;DHT22;69543;42.138;24.742;2023-04-24T00:32:46;22.60;33.00
80236;DHT22;69543;42.138;24.742;2023-04-24T00:35:12;22.60;33.00
80236;DHT22;69543;42.138;24.742;2023-04-24T00:37:37;22.60;33.00
80236;DHT22;69543;42.138;24.742;2023-04-24T00:40:03;22.60;32.90
80236;DHT22;69543;42.138;24.742;2023-04-24T00:42:29;22.60;32.90
80236;DHT22;69543;42.138;24.742;2023-04-24T00:44:56;22.60;33.00
80236;DHT22;69543;42.138;24.742;2023-04-24T00:47:25;22.60;32.90
80236;DHT22;69543;42.138;24.742;2023-04-24T00:49:51;22.60;32.90
80236;DHT22;69543;42.138;24.742;2023-04-24T00:52:19;22.60;32.90
80236;DHT22;69543;42.138;24.742;2023-04-24T00:54:49;22.60;33.00
80236;DHT22;69543;42.138;24.742;2023-04-24T00:57:15;22.60;33.00
80236;DHT22;69543;42.138;24.742;2023-04-24T00:59:42;22.60;32.90
80236;DHT22;69543;42.138;24.742;2023-04-24T01:02:09;22.60;33.00
80236;DHT22;69543;42.138;24.742;2023-04-24T01:04:36;22.60;32.90
80236;DHT22;69543;42.138;24.742;2023-04-24T01:07:03;22.60;33.00
80236;DHT22;69543;42.138;24.742;2023-04-24T01:09:32;22.60;33.00
80236;DHT22;69543;42.138;24.742;2023-04-24T01:11:58;22.60;33.00
80236;DHT22;69543;42.138;24.742;2023-04-24T01:14:24;22.60;33.00
80236;DHT22;69543;42.138;24.742;2023-04-24T01:16:49;22.60;34.10
80236;DHT22;69543;42.138;24.742;2023-04-24T01:19:16;22.60;33.10
80236;DHT22;69543;42.138;24.742;2023-04-24T01:21:43;22.60;33.00
80236;DHT22;69543;42.138;24.742;2023-04-24T01:24:12;22.60;33.00
80236;DHT22;69543;42.138;24.742;2023-04-24T01:26:38;22.60;33.00
80236;DHT22;69543;42.138;24.742;2023-04-24T01:29:04;22.60;32.90
80236;DHT22;69543;42.138;24.742;2023-04-24T01:31:30;22.60;33.00
80236;DHT22;69543;42.138;24.742;2023-04-24T01:33:57;22.60;33.00
80236;DHT22;69543;42.138;24.742;2023-04-24T01:36:24;22.60;33.00
80236;DHT22;69543;42.138;24.742;2023-04-24T01:38:51;22.60;32.90
80236;DHT22;69543;42.138;24.742;2023-04-24T01:41:17;22.60;33.00
80236;DHT22;69543;42.138;24.742;2023-04-24T01:43:43;22.60;33.00
80236;DHT22;69543;42.138;24.742;2023-04-24T01:46:08;22.60;33.00
80236;DHT22;69543;42.138;24.742;2023-04-24T01:48:34;22.60;33.10
80236;DHT22;69543;42.138;24.742;2023-04-24T01:51:00;22.60;33.00
80236;DHT22;69543;42.138;24.742;2023-04-24T01:53:29;22.60;33.10
80236;DHT22;69543;42.138;24.742;2023-04-24T01:55:54;22.60;33.00
80236;DHT22;69543;42.138;24.742;2023-04-24T01:58:21;22.50;32.90
80236;DHT22;69543;42.138;24.742;2023-04-24T02:00:46;22.60;33.10
80236;DHT22;69543;42.138;24.742;2023-04-24T02:03:12;22.60;33.00
80236;DHT22;69543;42.138;24.742;2023-04-24T02:05:38;22.50;33.00
80236;DHT22;69543;42.138;24.742;2023-04-24T02:08:03;22.60;33.00
80236;DHT22;69543;42.138;24.742;2023-04-24T02:10:29;22.50;33.00
80236;DHT22;69543;42.138;24.742;2023-04-24T02:13:00;22.50;34.10
80236;DHT22;69543;42.138;24.742;2023-04-24T02:15:29;22.50;33.00
80236;DHT22;69543;42.138;24.742;2023-04-24T02:17:55;22.50;33.00
80236;DHT22;69543;42.138;24.742;2023-04-24T02:20:21;22.50;33.00
80236;DHT22;69543;42.138;24.742;2023-04-24T02:22:46;22.50;33.00
80236;DHT22;69543;42.138;24.742;2023-04-24T02:25:12;22.50;33.00
80236;DHT22;69543;42.138;24.742;2023-04-24T02:27:38;22.50;33.00
80236;DHT22;69543;42.138;24.742;2023-04-24T02:30:03;22.50;33.00
80236;DHT22;69543;42.138;24.742;2023-04-24T02:32:29;22.50;33.00
80236;DHT22;69543;42.138;24.742;2023-04-24T02:34:56;22.50;33.00
80236;DHT22;69543;42.138;24.742;2023-04-24T02:37:24;22.50;33.00
80236;DHT22;69543;42.138;24.742;2023-04-24T02:39:50;22.50;32.90
80236;DHT22;69543;42.138;24.742;2023-04-24T02:42:16;22.50;32.90
80236;DHT22;69543;42.138;24.742;2023-04-24T02:44:41;22.50;33.00
80236;DHT22;69543;42.138;24.742;2023-04-24T02:47:07;22.50;33.00
80236;DHT22;69543;42.138;24.742;2023-04-24T02:49:34;22.50;33.00
80236;DHT22;69543;42.138;24.742;2023-04-24T02:51:59;22.50;33.00
80236;DHT22;69543;42.138;24.742;2023-04-24T02:54:25;22.50;33.00
80236;DHT22;69543;42.138;24.742;2023-04-24T02:56:51;22.50;33.00
80236;DHT22;69543;42.138;24.742;2023-04-24T02:59:16;22.50;33.00
80236;DHT22;69543;42.138;24.742;2023-04-24T03:01:42;22.50;33.00
80236;DHT22;69543;42.138;24.742;2023-04-24T03:04:10;22.50;33.00
80236;DHT22;69543;42.138;24.742;2023-04-24T03:06:35;22.50;33.00
80236;DHT22;69543;42.138;24.742;2023-04-24T03:09:01;22.50;33.00
80236;DHT22;69543;42.138;24.742;2023-04-24T03:11:30;22.50;33.00
80236;DHT22;69543;42.138;24.742;2023-04-24T03:13:56;22.50;33.00
80236;DHT22;69543;42.138;24.742;2023-04-24T03:16:21;22.50;33.00
80236;DHT22;69543;42.138;24.742;2023-04-24T03:18:47;22.50;33.00
80236;DHT22;69543;42.138;24.742;2023-04-24T03:21:13;22.50;33.00
80236;DHT22;69543;42.138;24.742;2023-04-24T03:23:38;22.50;33.00
80236;DHT22;69543;42.138;24.742;2023-04-24T03:26:04;22.40;33.00
80236;DHT22;69543;42.138;24.742;2023-04-24T03:28:30;22.50;33.10
80236;DHT22;69543;42.138;24.742;2023-04-24T03:30:56;22.50;33.00
80236;DHT22;69543;42.138;24.742;2023-04-24T03:33:22;22.40;32.90
80236;DHT22;69543;42.138;24.742;2023-04-24T03:35:47;22.40;32.90
80236;DHT22;69543;42.138;24.742;2023-04-24T03:38:13;22.40;33.00
80236;DHT22;69543;42.138;24.742;2023-04-24T03:40:41;22.40;33.00
80236;DHT22;69543;42.138;24.742;2023-04-24T03:43:06;22.50;33.00
80236;DHT22;69543;42.138;24.742;2023-04-24T03:45:32;22.40;33.00
80236;DHT22;69543;42.138;24.742;2023-04-24T03:47:58;22.40;33.00
80236;DHT22;69543;42.138;24.742;2023-04-24T03:50:23;22.40;32.90
80236;DHT22;69543;42.138;24.742;2023-04-24T03:52:49;22.50;33.00
80236;DHT22;69543;42.138;24.742;2023-04-24T03:55:15;22.50;33.00
80236;DHT22;69543;42.138;24.742;2023-04-24T03:57:41;22.50;33.00
80236;DHT22;69543;42.138;24.742;2023-04-24T04:00:07;22.50;32.90
80236;DHT22;69543;42.138;24.742;2023-04-24T04:02:34;22.60;32.90
80236;DHT22;69543;42.138;24.742;2023-04-24T04:05:00;22.60;32.80
80236;DHT22;69543;42.138;24.742;2023-04-24T04:07:25;22.60;32.80
80236;DHT22;69543;42.138;24.742;2023-04-24T04:09:51;22.50;33.80
80236;DHT22;69543;42.138;24.742;2023-04-24T04:12:17;22.40;35.30
80236;DHT22;69543;42.138;24.742;2023-04-24T04:14:42;22.00;36.80
80236;DHT22;69543;42.138;24.742;2023-04-24T04:17:08;21.80;37.70
80236;DHT22;69543;42.138;24.742;2023-04-24T04:19:34;21.60;36.90
80236;DHT22;69543;42.138;24.742;2023-04-24T04:22:00;21.40;36.20
80236;DHT22;69543;42.138;24.742;2023-04-24T04:24:25;21.20;36.00
80236;DHT22;69543;42.138;24.742;2023-04-24T04:26:52;21.00;35.40
80236;DHT22;69543;42.138;24.742;2023-04-24T04:29:17;20.90;35.40
80236;DHT22;69543;42.138;24.742;2023-04-24T04:31:48;20.90;36.50
80236;DHT22;69543;42.138;24.742;2023-04-24T04:34:13;20.80;35.30
80236;DHT22;69543;42.138;24.742;2023-04-24T04:36:42;20.80;35.50
80236;DHT22;69543;42.138;24.742;2023-04-24T04:39:08;20.70;35.50
80236;DHT22;69543;42.138;24.742;2023-04-24T04:41:34;20.60;35.50
80236;DHT22;69543;42.138;24.742;2023-04-24T04:44:03;20.50;35.50
80236;DHT22;69543;42.138;24.742;2023-04-24T04:46:30;20.40;35.70
80236;DHT22;69543;42.138;24.742;2023-04-24T04:48:58;20.40;35.90
80236;DHT22;69543;42.138;24.742;2023-04-24T04:51:24;20.40;36.00
80236;DHT22;69543;42.138;24.742;2023-04-24T04:53:50;20.30;35.90
80236;DHT22;69543;42.138;24.742;2023-04-24T04:56:16;20.30;35.80
80236;DHT22;69543;42.138;24.742;2023-04-24T04:58:41;20.20;35.90
80236;DHT22;69543;42.138;24.742;2023-04-24T05:01:07;20.20;36.00
80236;DHT22;69543;42.138;24.742;2023-04-24T05:03:36;20.10;36.20
80236;DHT22;69543;42.138;24.742;2023-04-24T05:06:02;20.10;36.10
80236;DHT22;69543;42.138;24.742;2023-04-24T05:08:28;20.10;36.10
80236;DHT22;69543;42.138;24.742;2023-04-24T05:10:54;20.20;36.10
80236;DHT22;69543;42.138;24.742;2023-04-24T05:13:20;20.20;36.00
80236;DHT22;69543;42.138;24.742;2023-04-24T05:15:46;20.20;36.00
80236;DHT22;69543;42.138;24.742;2023-04-24T05:18:12;20.20;36.30
80236;DHT22;69543;42.138;24.742;2023-04-24T05:20:38;20.10;36.50
80236;DHT22;69543;42.138;24.742;2023-04-24T05:23:06;20.10;36.70
80236;DHT22;69543;42.138;24.742;2023-04-24T05:25:32;20.10;36.60
80236;DHT22;69543;42.138;24.742;2023-04-24T05:28:01;20.10;36.70
80236;DHT22;69543;42.138;24.742;2023-04-24T05:30:30;20.00;36.80
80236;DHT22;69543;42.138;24.742;2023-04-24T05:32:55;20.10;36.80
80236;DHT22;69543;42.138;24.742;2023-04-24T05:35:23;20.00;37.00
80236;DHT22;69543;42.138;24.742;2023-04-24T05:37:49;20.00;37.00
80236;DHT22;69543;42.138;24.742;2023-04-24T05:40:15;20.00;37.20
80236;DHT22;69543;42.138;24.742;2023-04-24T05:42:41;19.90;37.20
80236;DHT22;69543;42.138;24.742;2023-04-24T05:45:07;20.00;37.30
80236;DHT22;69543;42.138;24.742;2023-04-24T05:47:33;20.10;37.20
80236;DHT22;69543;42.138;24.742;2023-04-24T05:49:58;20.20;37.10
80236;DHT22;69543;42.138;24.742;2023-04-24T05:52:24;20.20;37.00
80236;DHT22;69543;42.138;24.742;2023-04-24T05:54:50;20.20;37.00
80236;DHT22;69543;42.138;24.742;2023-04-24T05:57:16;20.20;37.00
80236;DHT22;69543;42.138;24.742;2023-04-24T05:59:41;20.30;37.00
80236;DHT22;69543;42.138;24.742;2023-04-24T06:02:07;20.30;37.00
80236;DHT22;69543;42.138;24.742;2023-04-24T06:04:33;20.30;36.80
80236;DHT22;69543;42.138;24.742;2023-04-24T06:06:59;20.40;36.90
80236;DHT22;69543;42.138;24.742;2023-04-24T06:09:25;20.40;36.90
80236;DHT22;69543;42.138;24.742;2023-04-24T06:11:52;20.40;36.90
80236;DHT22;69543;42.138;24.742;2023-04-24T06:14:19;20.40;36.80
80236;DHT22;69543;42.138;24.742;2023-04-24T06:16:45;20.40;36.80
80236;DHT22;69543;42.138;24.742;2023-04-24T06:19:11;20.50;36.70
80236;DHT22;69543;42.138;24.742;2023-04-24T06:21:36;20.70;36.40
80236;DHT22;69543;42.138;24.742;2023-04-24T06:24:03;20.90;36.10
80236;DHT22;69543;42.138;24.742;2023-04-24T06:26:30;21.00;35.70
80236;DHT22;69543;42.138;24.742;2023-04-24T06:28:55;21.20;35.50
80236;DHT22;69543;42.138;24.742;2023-04-24T06:31:21;21.30;35.20
80236;DHT22;69543;42.138;24.742;2023-04-24T06:33:48;21.40;35.00
80236;DHT22;69543;42.138;24.742;2023-04-24T06:36:14;21.50;34.80
80236;DHT22;69543;42.138;24.742;2023-04-24T06:38:41;21.60;34.60
80236;DHT22;69543;42.138;24.742;2023-04-24T06:41:07;21.70;34.50
80236;DHT22;69543;42.138;24.742;2023-04-24T06:43:33;21.70;34.30
80236;DHT22;69543;42.138;24.742;2023-04-24T06:45:59;21.80;34.30
80236;DHT22;69543;42.138;24.742;2023-04-24T06:48:25;21.90;35.30
80236;DHT22;69543;42.138;24.742;2023-04-24T06:50:53;21.90;34.00
80236;DHT22;69543;42.138;24.742;2023-04-24T06:53:19;22.00;34.00
80236;DHT22;69543;42.138;24.742;2023-04-24T06:55:45;22.00;33.80
80236;DHT22;69543;42.138;24.742;2023-04-24T06:58:11;22.10;33.80
80236;DHT22;69543;42.138;24.742;2023-04-24T07:00:37;22.10;33.70
80236;DHT22;69543;42.138;24.742;2023-04-24T07:03:03;22.20;33.60
80236;DHT22;69543;42.138;24.742;2023-04-24T07:05:31;22.20;33.60
80236;DHT22;69543;42.138;24.742;2023-04-24T07:07:59;22.20;33.60
80236;DHT22;69543;42.138;24.742;2023-04-24T07:10:25;22.30;33.60
80236;DHT22;69543;42.138;24.742;2023-04-24T07:12:54;22.30;33.60
80236;DHT22;69543;42.138;24.742;2023-04-24T07:15:22;22.30;33.50
80236;DHT22;69543;42.138;24.742;2023-04-24T07:17:50;22.40;33.40
80236;DHT22;69543;42.138;24.742;2023-04-24T07:20:16;22.40;33.30
80236;DHT22;69543;42.138;24.742;2023-04-24T07:22:42;22.40;33.30
80236;DHT22;69543;42.138;24.742;2023-04-24T07:25:08;22.50;33.30
80236;DHT22;69543;42.138;24.742;2023-04-24T07:27:35;22.50;33.20
80236;DHT22;69543;42.138;24.742;2023-04-24T07:30:02;22.50;33.10
80236;DHT22;69543;42.138;24.742;2023-04-24T07:32:29;22.50;33.10
80236;DHT22;69543;42.138;24.742;2023-04-24T07:34:55;22.60;33.10
80236;DHT22;69543;42.138;24.742;2023-04-24T07:37:26;22.60;33.00
80236;DHT22;69543;42.138;24.742;2023-04-24T07:39:54;22.60;33.00
80236;DHT22;69543;42.138;24.742;2023-04-24T07:42:20;22.60;32.90
80236;DHT22;69543;42.138;24.742;2023-04-24T07:44:46;22.60;32.90
80236;DHT22;69543;42.138;24.742;2023-04-24T07:47:13;22.60;32.90
80236;DHT22;69543;42.138;24.742;2023-04-24T07:49:41;22.70;33.00
80236;DHT22;69543;42.138;24.742;2023-04-24T07:52:07;22.70;32.90
80236;DHT22;69543;42.138;24.742;2023-04-24T07:54:33;22.70;32.90
80236;DHT22;69543;42.138;24.742;2023-04-24T07:56:59;22.70;32.80
80236;DHT22;69543;42.138;24.742;2023-04-24T07:59:25;22.70;32.80
80236;DHT22;69543;42.138;24.742;2023-04-24T08:01:51;22.80;32.80
80236;DHT22;69543;42.138;24.742;2023-04-24T08:04:17;22.80;32.80
80236;DHT22;69543;42.138;24.742;2023-04-24T08:06:43;22.80;32.80
80236;DHT22;69543;42.138;24.742;2023-04-24T08:09:09;22.80;32.80
80236;DHT22;69543;42.138;24.742;2023-04-24T08:11:35;22.80;32.70
80236;DHT22;69543;42.138;24.742;2023-04-24T08:14:03;22.80;32.70
80236;DHT22;69543;42.138;24.742;2023-04-24T08:16:29;22.80;32.70
80236;DHT22;69543;42.138;24.742;2023-04-24T08:18:57;22.80;32.60
80236;DHT22;69543;42.138;24.742;2023-04-24T08:21:23;22.80;32.60
80236;DHT22;69543;42.138;24.742;2023-04-24T08:23:49;22.80;32.60
80236;DHT22;69543;42.138;24.742;2023-04-24T08:26:15;22.80;32.60
80236;DHT22;69543;42.138;24.742;2023-04-24T08:28:42;22.80;32.60
80236;DHT22;69543;42.138;24.742;2023-04-24T08:31:08;22.90;32.60
80236;DHT22;69543;42.138;24.742;2023-04-24T08:33:33;22.90;32.60
80236;DHT22;69543;42.138;24.742;2023-04-24T08:36:02;22.90;32.60
80236;DHT22;69543;42.138;24.742;2023-04-24T08:38:28;22.90;32.80
80236;DHT22;69543;42.138;24.742;2023-04-24T11:35:54;24.00;37.60
80236;DHT22;69543;42.138;24.742;2023-04-24T11:38:19;24.10;38.60
80236;DHT22;69543;42.138;24.742;2023-04-24T11:40:45;24.00;38.80
80236;DHT22;69543;42.138;24.742;2023-04-24T11:43:14;24.10;38.60
80236;DHT22;69543;42.138;24.742;2023-04-24T11:45:48;24.10;38.50
80236;DHT22;69543;42.138;24.742;2023-04-24T11:48:19;24.10;38.30
80236;DHT22;69543;42.138;24.742;2023-04-24T11:50:46;24.20;38.00
80236;DHT22;69543;42.138;24.742;2023-04-24T11:53:12;24.30;37.70
80236;DHT22;69543;42.138;24.742;2023-04-24T11:55:38;24.20;37.40
80236;DHT22;69543;42.138;24.742;2023-04-24T11:58:05;24.20;37.50
80236;DHT22;69543;42.138;24.742;2023-04-24T12:00:32;24.30;37.20
80236;DHT22;69543;42.138;24.742;2023-04-24T12:03:11;24.30;37.30
80236;DHT22;69543;42.138;24.742;2023-04-24T12:05:37;24.40;37.20
80236;DHT22;69543;42.138;24.742;2023-04-24T12:08:04;24.30;37.30
80236;DHT22;69543;42.138;24.742;2023-04-24T12:10:34;24.40;37.30
80236;DHT22;69543;42.138;24.742;2023-04-24T12:13:02;24.40;37.20
80236;DHT22;69543;42.138;24.742;2023-04-24T12:15:28;24.40;37.20
80236;DHT22;69543;42.138;24.742;2023-04-24T12:17:55;24.40;37.10
80236;DHT22;69543;42.138;24.742;2023-04-24T12:20:29;24.50;37.20
80236;DHT22;69543;42.138;24.742;2023-04-24T12:22:57;24.50;37.20
80236;DHT22;69543;42.138;24.742;2023-04-24T12:25:27;24.50;37.20
80236;DHT22;69543;42.138;24.742;2023-04-24T12:28:13;24.50;37.20
80236;DHT22;69543;42.138;24.742;2023-04-24T12:33:08;24.50;37.20
80236;DHT22;69543;42.138;24.742;2023-04-24T12:35:33;24.50;37.20
80236;DHT22;69543;42.138;24.742;2023-04-24T12:38:14;24.50;37.20
80236;DHT22;69543;42.138;24.742;2023-04-24T12:40:41;24.60;37.10
80236;DHT22;69543;42.138;24.742;2023-04-24T12:43:15;24.50;37.20
80236;DHT22;69543;42.138;24.742;2023-04-24T12:45:41;24.50;37.10
80236;DHT22;69543;42.138;24.742;2023-04-24T12:48:07;24.50;37.20
80236;DHT22;69543;42.138;24.742;2023-04-24T12:50:33;24.50;37.30
80236;DHT22;69543;42.138;24.742;2023-04-24T12:52:59;24.50;37.40
80236;DHT22;69543;42.138;24.742;2023-04-24T12:55:24;24.50;37.40
80236;DHT22;69543;42.138;24.742;2023-04-24T12:57:50;24.50;37.40
80236;DHT22;69543;42.138;24.742;2023-04-24T13:00:17;24.50;37.40
80236;DHT22;69543;42.138;24.742;2023-04-24T13:02:43;24.40;37.40
80236;DHT22;69543;42.138;24.742;2023-04-24T13:05:09;24.50;37.60
80236;DHT22;69543;42.138;24.742;2023-04-24T13:07:34;24.40;37.60
80236;DHT22;69543;42.138;24.742;2023-04-24T13:10:00;24.40;37.80
80236;DHT22;69543;42.138;24.742;2023-04-24T13:12:26;24.30;37.80
80236;DHT22;69543;42.138;24.742;2023-04-24T13:14:52;24.30;38.10
80236;DHT22;69543;42.138;24.742;2023-04-24T13:17:18;24.40;38.10
80236;DHT22;69543;42.138;24.742;2023-04-24T13:19:44;24.30;38.10
80236;DHT22;69543;42.138;24.742;2023-04-24T13:22:11;24.30;38.30
80236;DHT22;69543;42.138;24.742;2023-04-24T13:24:37;24.30;38.30
80236;DHT22;69543;42.138;24.742;2023-04-24T13:27:05;24.40;38.20
80236;DHT22;69543;42.138;24.742;2023-04-24T13:29:31;24.50;38.30
80236;DHT22;69543;42.138;24.742;2023-04-24T13:31:56;24.50;38.10
80236;DHT22;69543;42.138;24.742;2023-04-24T13:34:25;24.40;38.10
80236;DHT22;69543;42.138;24.742;2023-04-24T13:36:53;24.50;38.30
80236;DHT22;69543;42.138;24.742;2023-04-24T13:39:19;24.50;38.30
80236;DHT22;69543;42.138;24.742;2023-04-24T13:41:45;24.50;38.30
80236;DHT22;69543;42.138;24.742;2023-04-24T13:44:14;24.50;38.30
80236;DHT22;69543;42.138;24.742;2023-04-24T13:46:41;24.50;38.30
80236;DHT22;69543;42.138;24.742;2023-04-24T13:49:07;24.50;38.40
80236;DHT22;69543;42.138;24.742;2023-04-24T13:51:32;24.50;38.40
80236;DHT22;69543;42.138;24.742;2023-04-24T13:53:58;24.50;38.30
80236;DHT22;69543;42.138;24.742;2023-04-24T13:56:26;24.60;38.10
80236;DHT22;69543;42.138;24.742;2023-04-24T13:58:51;24.50;38.00
80236;DHT22;69543;42.138;24.742;2023-04-24T14:01:19;24.60;38.10
80236;DHT22;69543;42.138;24.742;2023-04-24T14:03:46;24.60;38.10
80236;DHT22;69543;42.138;24.742;2023-04-24T14:06:11;24.50;38.10
80236;DHT22;69543;42.138;24.742;2023-04-24T14:08:37;24.50;38.30
80236;DHT22;69543;42.138;24.742;2023-04-24T14:11:03;24.50;38.40
80236;DHT22;69543;42.138;24.742;2023-04-24T14:13:29;24.50;38.30
80236;DHT22;69543;42.138;24.742;2023-04-24T14:15:55;24.60;38.40
80236;DHT22;69543;42.138;24.742;2023-04-24T14:18:20;24.60;38.30
80236;DHT22;69543;42.138;24.742;2023-04-24T14:20:46;24.70;38.20
80236;DHT22;69543;42.138;24.742;2023-04-24T14:23:12;24.70;38.00
80236;DHT22;69543;42.138;24.742;2023-04-24T14:25:37;24.70;38.20
80236;DHT22;69543;42.138;24.742;2023-04-24T14:28:03;24.60;38.20
80236;DHT22;69543;42.138;24.742;2023-04-24T14:30:29;24.60;38.20
80236;DHT22;69543;42.138;24.742;2023-04-24T14:32:54;24.60;38.20
80236;DHT22;69543;42.138;24.742;2023-04-24T14:35:21;24.60;38.20
80236;DHT22;69543;42.138;24.742;2023-04-24T14:37:47;24.70;38.00
80236;DHT22;69543;42.138;24.742;2023-04-24T14:40:13;24.70;38.10
80236;DHT22;69543;42.138;24.742;2023-04-24T14:42:39;24.70;38.00
80236;DHT22;69543;42.138;24.742;2023-04-24T14:45:06;24.70;38.00
80236;DHT22;69543;42.138;24.742;2023-04-24T14:47:33;24.80;39.20
80236;DHT22;69543;42.138;24.742;2023-04-24T14:49:58;24.70;38.00
80236;DHT22;69543;42.138;24.742;2023-04-24T14:52:24;24.80;38.00
80236;DHT22;69543;42.138;24.742;2023-04-24T14:54:50;24.80;38.00
80236;DHT22;69543;42.138;24.742;2023-04-24T14:57:16;24.80;37.70
80236;DHT22;69543;42.138;24.742;2023-04-24T14:59:41;24.80;37.60
80236;DHT22;69543;42.138;24.742;2023-04-24T15:02:07;24.80;37.70
80236;DHT22;69543;42.138;24.742;2023-04-24T15:04:33;24.80;37.50
80236;DHT22;69543;42.138;24.742;2023-04-24T15:06:58;24.80;37.60
80236;DHT22;69543;42.138;24.742;2023-04-24T15:09:24;24.70;37.70
80236;DHT22;69543;42.138;24.742;2023-04-24T15:11:51;24.70;37.80
80236;DHT22;69543;42.138;24.742;2023-04-24T15:14:17;24.70;37.80
80236;DHT22;69543;42.138;24.742;2023-04-24T15:16:44;24.70;37.80
80236;DHT22;69543;42.138;24.742;2023-04-24T15:19:10;24.60;38.00
80236;DHT22;69543;42.138;24.742;2023-04-24T15:21:36;24.60;38.00
80236;DHT22;69543;42.138;24.742;2023-04-24T15:24:03;24.60;38.00
80236;DHT22;69543;42.138;24.742;2023-04-24T15:26:29;24.60;38.10
80236;DHT22;69543;42.138;24.742;2023-04-24T15:28:55;24.60;38.00
80236;DHT22;69543;42.138;24.742;2023-04-24T15:31:20;24.60;38.00
80236;DHT22;69543;42.138;24.742;2023-04-24T15:33:48;24.60;37.90
80236;DHT22;69543;42.138;24.742;2023-04-24T15:36:15;24.60;37.80
80236;DHT22;69543;42.138;24.742;2023-04-24T15:38:42;24.70;37.50
80236;DHT22;69543;42.138;24.742;2023-04-24T15:41:07;24.80;37.40
80236;DHT22;69543;42.138;24.742;2023-04-24T15:43:33;24.70;37.20
80236;DHT22;69543;42.138;24.742;2023-04-24T15:46:00;24.70;37.10
80236;DHT22;69543;42.138;24.742;2023-04-24T15:48:27;24.80;37.20
80236;DHT22;69543;42.138;24.742;2023-04-24T15:50:53;24.80;37.30
80236;DHT22;69543;42.138;24.742;2023-04-24T15:53:19;24.80;37.20
80236;DHT22;69543;42.138;24.742;2023-04-24T15:55:49;24.80;37.20
80236;DHT22;69543;42.138;24.742;2023-04-24T15:58:16;24.70;37.20
80236;DHT22;69543;42.138;24.742;2023-04-24T16:00:42;24.80;37.10
80236;DHT22;69543;42.138;24.742;2023-04-24T16:03:08;24.80;37.10
80236;DHT22;69543;42.138;24.742;2023-04-24T16:05:34;24.70;37.00
80236;DHT22;69543;42.138;24.742;2023-04-24T16:08:00;24.70;37.00
80236;DHT22;69543;42.138;24.742;2023-04-24T16:10:26;24.70;37.00
80236;DHT22;69543;42.138;24.742;2023-04-24T16:12:52;24.80;37.00
80236;DHT22;69543;42.138;24.742;2023-04-24T16:15:19;24.70;38.00
80236;DHT22;69543;42.138;24.742;2023-04-24T16:17:46;24.70;37.00
80236;DHT22;69543;42.138;24.742;2023-04-24T16:20:12;24.70;37.00
80236;DHT22;69543;42.138;24.742;2023-04-24T16:22:38;24.70;37.00
80236;DHT22;69543;42.138;24.742;2023-04-24T16:25:06;24.80;36.90
80236;DHT22;69543;42.138;24.742;2023-04-24T16:27:32;24.80;36.80
80236;DHT22;69543;42.138;24.742;2023-04-24T16:29:58;24.80;36.80
80236;DHT22;69543;42.138;24.742;2023-04-24T16:32:24;24.80;36.70
80236;DHT22;69543;42.138;24.742;2023-04-24T16:34:50;24.80;36.90
80236;DHT22;69543;42.138;24.742;2023-04-24T16:37:16;24.80;36.90
80236;DHT22;69543;42.138;24.742;2023-04-24T16:39:42;24.80;36.80
80236;DHT22;69543;42.138;24.742;2023-04-24T16:42:14;24.80;36.80
80236;DHT22;69543;42.138;24.742;2023-04-24T16:44:41;24.80;36.80
80236;DHT22;69543;42.138;24.742;2023-04-24T16:47:08;24.80;36.80
80236;DHT22;69543;42.138;24.742;2023-04-24T16:49:35;24.70;36.80
80236;DHT22;69543;42.138;24.742;2023-04-24T16:52:01;24.80;36.80
80236;DHT22;69543;42.138;24.742;2023-04-24T16:54:27;24.70;36.70
80236;DHT22;69543;42.138;24.742;2023-04-24T16:56:55;24.70;36.60
80236;DHT22;69543;42.138;24.742;2023-04-24T16:59:21;24.70;36.50
80236;DHT22;69543;42.138;24.742;2023-04-24T17:01:48;24.70;36.60
80236;DHT22;69543;42.138;24.742;2023-04-24T17:04:14;24.70;36.60
80236;DHT22;69543;42.138;24.742;2023-04-24T17:06:40;24.70;36.80
80236;DHT22;69543;42.138;24.742;2023-04-24T17:09:05;24.70;36.80
80236;DHT22;69543;42.138;24.742;2023-04-24T17:11:31;24.70;36.90
80236;DHT22;69543;42.138;24.742;2023-04-24T17:13:57;24.70;36.80
80236;DHT22;69543;42.138;24.742;2023-04-24T17:16:26;24.70;36.80
80236;DHT22;69543;42.138;24.742;2023-04-24T17:18:52;24.70;36.80
80236;DHT22;69543;42.138;24.742;2023-04-24T17:21:18;24.70;36.70
80236;DHT22;69543;42.138;24.742;2023-04-24T17:23:44;24.60;36.70
80236;DHT22;69543;42.138;24.742;2023-04-24T17:26:10;24.60;36.60
80236;DHT22;69543;42.138;24.742;2023-04-24T17:28:37;24.60;36.60
80236;DHT22;69543;42.138;24.742;2023-04-24T17:31:03;24.60;36.60
80236;DHT22;69543;42.138;24.742;2023-04-24T17:33:30;24.70;36.60
80236;DHT22;69543;42.138;24.742;2023-04-24T17:35:56;24.60;36.60
80236;DHT22;69543;42.138;24.742;2023-04-24T17:38:23;24.60;36.50
80236;DHT22;69543;42.138;24.742;2023-04-24T17:40:49;24.60;36.50
80236;DHT22;69543;42.138;24.742;2023-04-24T17:43:21;24.60;36.50
80236;DHT22;69543;42.138;24.742;2023-04-24T17:45:48;24.60;36.50
80236;DHT22;69543;42.138;24.742;2023-04-24T17:48:14;24.60;36.60
80236;DHT22;69543;42.138;24.742;2023-04-24T17:50:40;24.60;36.60
80236;DHT22;69543;42.138;24.742;2023-04-24T17:53:06;24.60;36.60
80236;DHT22;69543;42.138;24.742;2023-04-24T17:55:32;24.60;36.60
80236;DHT22;69543;42.138;24.742;2023-04-24T17:58:00;24.50;36.50
80236;DHT22;69543;42.138;24.742;2023-04-24T18:00:31;24.50;36.60
80236;DHT22;69543;42.138;24.742;2023-04-24T18:02:58;24.50;36.60
80236;DHT22;69543;42.138;24.742;2023-04-24T18:05:29;24.50;36.50
80236;DHT22;69543;42.138;24.742;2023-04-24T18:07:56;24.50;36.50